sensor_id;sensor_type;location;lat;lon;timestamp;P1;durP1;ratioP1;P2;durP2;ratioP2
4696;SDS011;2362;50.780;0.292;2024-01-27T00:01:36;15.50;;;5.03;;
4696;SDS011;2362;50.780;0.292;2024-01-27T00:04:01;14.00;;;6.57;;
4696;SDS011;2362;50.780;0.292;2024-01-27T00:06:27;22.07;;;6.20;;
4696;SDS011;2362;50.780;0.292;2024-01-27T00:08:53;14.97;;;5.77;;
4696;SDS011;2362;50.780;0.292;2024-01-27T00:11:19;17.83;;;5.90;;
4696;SDS011;2362;50.780;0.292;2024-01-27T00:13:45;14.83;;;6.33;;
4696;SDS011;2362;50.780;0.292;2024-01-27T00:16:10;19.17;;;6.13;;
4696;SDS011;2362;50.780;0.292;2024-01-27T00:18:36;15.47;;;6.50;;
4696;SDS011;2362;50.780;0.292;2024-01-27T00:21:03;22.47;;;6.80;;
4696;SDS011;2362;50.780;0.292;2024-01-27T00:23:29;18.40;;;6.07;;
4696;SDS011;2362;50.780;0.292;2024-01-27T00:25:55;19.47;;;6.00;;
4696;SDS011;2362;50.780;0.292;2024-01-27T00:28:21;13.97;;;5.70;;
4696;SDS011;2362;50.780;0.292;2024-01-27T00:30:47;16.93;;;5.97;;
4696;SDS011;2362;50.780;0.292;2024-01-27T00:33:13;22.77;;;7.07;;
4696;SDS011;2362;50.780;0.292;2024-01-27T00:35:38;21.00;;;6.63;;
4696;SDS011;2362;50.780;0.292;2024-01-27T00:38:04;15.03;;;6.30;;
4696;SDS011;2362;50.780;0.292;2024-01-27T00:40:29;22.50;;;6.93;;
4696;SDS011;2362;50.780;0.292;2024-01-27T00:42:55;25.23;;;8.10;;
4696;SDS011;2362;50.780;0.292;2024-01-27T00:45:21;17.43;;;9.77;;
4696;SDS011;2362;50.780;0.292;2024-01-27T00:47:49;24.50;;;7.77;;
4696;SDS011;2362;50.780;0.292;2024-01-27T00:50:15;17.83;;;8.47;;
4696;SDS011;2362;50.780;0.292;2024-01-27T00:52:41;20.00;;;8.20;;
4696;SDS011;2362;50.780;0.292;2024-01-27T00:55:07;24.57;;;8.00;;
4696;SDS011;2362;50.780;0.292;2024-01-27T00:57:33;18.57;;;8.37;;
4696;SDS011;2362;50.780;0.292;2024-01-27T00:59:58;20.77;;;8.43;;
4696;SDS011;2362;50.780;0.292;2024-01-27T01:02:24;23.20;;;9.80;;
4696;SDS011;2362;50.780;0.292;2024-01-27T01:04:50;20.33;;;8.20;;
4696;SDS011;2362;50.780;0.292;2024-01-27T01:07:15;21.33;;;8.70;;
4696;SDS011;2362;50.780;0.292;2024-01-27T01:09:41;22.77;;;7.30;;
4696;SDS011;2362;50.780;0.292;2024-01-27T01:12:07;25.43;;;8.30;;
4696;SDS011;2362;50.780;0.292;2024-01-27T01:14:32;23.27;;;7.37;;
4696;SDS011;2362;50.780;0.292;2024-01-27T01:16:58;22.70;;;7.63;;
4696;SDS011;2362;50.780;0.292;2024-01-27T01:19:24;18.50;;;7.03;;
4696;SDS011;2362;50.780;0.292;2024-01-27T01:21:49;19.97;;;8.07;;
4696;SDS011;2362;50.780;0.292;2024-01-27T01:24:15;13.50;;;7.10;;
4696;SDS011;2362;50.780;0.292;2024-01-27T01:26:40;28.07;;;7.00;;
4696;SDS011;2362;50.780;0.292;2024-01-27T01:29:06;23.97;;;7.97;;
4696;SDS011;2362;50.780;0.292;2024-01-27T01:31:32;33.43;;;8.53;;
4696;SDS011;2362;50.780;0.292;2024-01-27T01:33:57;19.77;;;7.57;;
4696;SDS011;2362;50.780;0.292;2024-01-27T01:36:23;20.63;;;8.07;;
4696;SDS011;2362;50.780;0.292;2024-01-27T01:38:48;24.40;;;7.97;;
4696;SDS011;2362;50.780;0.292;2024-01-27T01:41:14;22.07;;;7.67;;
4696;SDS011;2362;50.780;0.292;2024-01-27T01:43:40;17.20;;;6.80;;
4696;SDS011;2362;50.780;0.292;2024-01-27T01:46:06;23.70;;;7.00;;
4696;SDS011;2362;50.780;0.292;2024-01-27T01:48:32;27.57;;;7.97;;
4696;SDS011;2362;50.780;0.292;2024-01-27T01:50:59;31.03;;;7.83;;
4696;SDS011;2362;50.780;0.292;2024-01-27T01:53:25;25.20;;;7.17;;
4696;SDS011;2362;50.780;0.292;2024-01-27T01:55:51;25.33;;;8.07;;
4696;SDS011;2362;50.780;0.292;2024-01-27T01:58:17;21.07;;;7.37;;
4696;SDS011;2362;50.780;0.292;2024-01-27T02:00:43;19.87;;;7.37;;
4696;SDS011;2362;50.780;0.292;2024-01-27T02:03:10;24.30;;;7.67;;
4696;SDS011;2362;50.780;0.292;2024-01-27T02:05:37;25.80;;;8.73;;
4696;SDS011;2362;50.780;0.292;2024-01-27T02:08:03;22.40;;;7.83;;
4696;SDS011;2362;50.780;0.292;2024-01-27T02:10:29;24.40;;;7.77;;
4696;SDS011;2362;50.780;0.292;2024-01-27T02:13:01;24.17;;;7.50;;
4696;SDS011;2362;50.780;0.292;2024-01-27T02:15:46;30.17;;;8.67;;
4696;SDS011;2362;50.780;0.292;2024-01-27T02:18:12;16.17;;;7.70;;
4696;SDS011;2362;50.780;0.292;2024-01-27T02:20:38;23.63;;;7.63;;
4696;SDS011;2362;50.780;0.292;2024-01-27T02:23:04;21.70;;;7.23;;
4696;SDS011;2362;50.780;0.292;2024-01-27T02:25:33;20.10;;;7.80;;
4696;SDS011;2362;50.780;0.292;2024-01-27T02:28:00;17.20;;;6.73;;
4696;SDS011;2362;50.780;0.292;2024-01-27T02:30:28;20.73;;;7.33;;
4696;SDS011;2362;50.780;0.292;2024-01-27T02:32:55;20.10;;;7.63;;
4696;SDS011;2362;50.780;0.292;2024-01-27T02:35:21;16.83;;;7.63;;
4696;SDS011;2362;50.780;0.292;2024-01-27T02:37:47;21.73;;;7.20;;
4696;SDS011;2362;50.780;0.292;2024-01-27T02:40:13;21.30;;;8.10;;
4696;SDS011;2362;50.780;0.292;2024-01-27T02:42:39;25.80;;;7.53;;
4696;SDS011;2362;50.780;0.292;2024-01-27T02:45:07;20.20;;;6.70;;
4696;SDS011;2362;50.780;0.292;2024-01-27T02:47:35;22.47;;;7.57;;
4696;SDS011;2362;50.780;0.292;2024-01-27T02:50:02;25.97;;;8.60;;
4696;SDS011;2362;50.780;0.292;2024-01-27T02:52:29;17.63;;;7.20;;
4696;SDS011;2362;50.780;0.292;2024-01-27T02:54:55;16.77;;;6.73;;
4696;SDS011;2362;50.780;0.292;2024-01-27T02:57:24;22.37;;;7.30;;
4696;SDS011;2362;50.780;0.292;2024-01-27T02:59:52;22.93;;;8.20;;
4696;SDS011;2362;50.780;0.292;2024-01-27T03:02:17;19.50;;;7.83;;
4696;SDS011;2362;50.780;0.292;2024-01-27T03:04:43;21.30;;;7.43;;
4696;SDS011;2362;50.780;0.292;2024-01-27T03:07:10;20.23;;;7.30;;
4696;SDS011;2362;50.780;0.292;2024-01-27T03:09:36;31.47;;;9.93;;
4696;SDS011;2362;50.780;0.292;2024-01-27T03:12:05;22.73;;;8.07;;
4696;SDS011;2362;50.780;0.292;2024-01-27T03:14:33;19.47;;;8.73;;
4696;SDS011;2362;50.780;0.292;2024-01-27T03:16:59;21.53;;;8.90;;
4696;SDS011;2362;50.780;0.292;2024-01-27T03:19:24;24.63;;;8.53;;
4696;SDS011;2362;50.780;0.292;2024-01-27T03:21:52;20.60;;;8.03;;
4696;SDS011;2362;50.780;0.292;2024-01-27T03:24:19;16.13;;;7.97;;
4696;SDS011;2362;50.780;0.292;2024-01-27T03:26:44;24.47;;;8.87;;
4696;SDS011;2362;50.780;0.292;2024-01-27T03:29:11;22.20;;;8.50;;
4696;SDS011;2362;50.780;0.292;2024-01-27T03:31:37;18.17;;;7.93;;
4696;SDS011;2362;50.780;0.292;2024-01-27T03:34:04;18.93;;;8.03;;
4696;SDS011;2362;50.780;0.292;2024-01-27T03:36:30;17.83;;;7.77;;
4696;SDS011;2362;50.780;0.292;2024-01-27T03:38:56;21.43;;;8.30;;
4696;SDS011;2362;50.780;0.292;2024-01-27T03:41:23;24.60;;;8.53;;
4696;SDS011;2362;50.780;0.292;2024-01-27T03:43:49;20.73;;;8.40;;
4696;SDS011;2362;50.780;0.292;2024-01-27T03:46:14;24.70;;;8.30;;
4696;SDS011;2362;50.780;0.292;2024-01-27T03:48:40;20.13;;;7.87;;
4696;SDS011;2362;50.780;0.292;2024-01-27T03:51:06;20.30;;;8.03;;
4696;SDS011;2362;50.780;0.292;2024-01-27T03:53:31;23.03;;;8.53;;
4696;SDS011;2362;50.780;0.292;2024-01-27T03:55:59;26.90;;;9.27;;
4696;SDS011;2362;50.780;0.292;2024-01-27T03:58:28;24.10;;;8.00;;
4696;SDS011;2362;50.780;0.292;2024-01-27T04:00:56;24.77;;;8.73;;
4696;SDS011;2362;50.780;0.292;2024-01-27T04:03:23;18.87;;;8.57;;
4696;SDS011;2362;50.780;0.292;2024-01-27T04:05:49;18.07;;;7.63;;
4696;SDS011;2362;50.780;0.292;2024-01-27T04:08:15;21.63;;;8.27;;
4696;SDS011;2362;50.780;0.292;2024-01-27T04:10:41;18.67;;;7.97;;
4696;SDS011;2362;50.780;0.292;2024-01-27T04:13:06;18.57;;;8.10;;
4696;SDS011;2362;50.780;0.292;2024-01-27T04:15:35;18.13;;;7.90;;
4696;SDS011;2362;50.780;0.292;2024-01-27T04:18:05;19.90;;;8.30;;
4696;SDS011;2362;50.780;0.292;2024-01-27T04:20:36;18.13;;;8.00;;
4696;SDS011;2362;50.780;0.292;2024-01-27T04:23:03;17.33;;;7.93;;
4696;SDS011;2362;50.780;0.292;2024-01-27T04:25:29;19.30;;;7.83;;
4696;SDS011;2362;50.780;0.292;2024-01-27T04:27:55;25.10;;;7.80;;
4696;SDS011;2362;50.780;0.292;2024-01-27T04:30:20;19.40;;;8.10;;
4696;SDS011;2362;50.780;0.292;2024-01-27T04:32:46;19.33;;;8.10;;
4696;SDS011;2362;50.780;0.292;2024-01-27T04:35:14;23.87;;;8.10;;
4696;SDS011;2362;50.780;0.292;2024-01-27T04:37:39;16.13;;;8.00;;
4696;SDS011;2362;50.780;0.292;2024-01-27T04:40:06;17.03;;;8.23;;
4696;SDS011;2362;50.780;0.292;2024-01-27T04:42:39;24.00;;;7.87;;
4696;SDS011;2362;50.780;0.292;2024-01-27T04:45:05;17.90;;;7.43;;
4696;SDS011;2362;50.780;0.292;2024-01-27T04:47:31;15.90;;;7.80;;
4696;SDS011;2362;50.780;0.292;2024-01-27T04:49:57;23.47;;;8.67;;
4696;SDS011;2362;50.780;0.292;2024-01-27T04:52:23;17.87;;;7.23;;
4696;SDS011;2362;50.780;0.292;2024-01-27T04:54:50;16.77;;;7.63;;
4696;SDS011;2362;50.780;0.292;2024-01-27T04:57:17;20.50;;;8.20;;
4696;SDS011;2362;50.780;0.292;2024-01-27T04:59:43;21.97;;;7.80;;
4696;SDS011;2362;50.780;0.292;2024-01-27T05:02:10;23.30;;;9.80;;
4696;SDS011;2362;50.780;0.292;2024-01-27T05:04:37;21.07;;;7.73;;
4696;SDS011;2362;50.780;0.292;2024-01-27T05:07:03;17.53;;;7.73;;
4696;SDS011;2362;50.780;0.292;2024-01-27T05:09:29;14.63;;;7.23;;
4696;SDS011;2362;50.780;0.292;2024-01-27T05:11:54;20.53;;;8.97;;
4696;SDS011;2362;50.780;0.292;2024-01-27T05:14:20;23.23;;;8.90;;
4696;SDS011;2362;50.780;0.292;2024-01-27T05:16:46;26.77;;;9.70;;
4696;SDS011;2362;50.780;0.292;2024-01-27T05:19:12;17.43;;;8.60;;
4696;SDS011;2362;50.780;0.292;2024-01-27T05:21:37;14.97;;;9.07;;
4696;SDS011;2362;50.780;0.292;2024-01-27T05:24:03;14.13;;;8.27;;
4696;SDS011;2362;50.780;0.292;2024-01-27T05:26:29;21.80;;;9.30;;
4696;SDS011;2362;50.780;0.292;2024-01-27T05:28:55;13.53;;;7.87;;
4696;SDS011;2362;50.780;0.292;2024-01-27T05:31:21;17.60;;;8.17;;
4696;SDS011;2362;50.780;0.292;2024-01-27T05:33:46;25.83;;;8.20;;
4696;SDS011;2362;50.780;0.292;2024-01-27T05:36:12;18.60;;;8.57;;
4696;SDS011;2362;50.780;0.292;2024-01-27T05:38:38;18.63;;;8.77;;
4696;SDS011;2362;50.780;0.292;2024-01-27T05:41:04;18.37;;;8.43;;
4696;SDS011;2362;50.780;0.292;2024-01-27T05:43:30;17.60;;;8.50;;
4696;SDS011;2362;50.780;0.292;2024-01-27T05:45:56;15.83;;;8.60;;
4696;SDS011;2362;50.780;0.292;2024-01-27T05:48:22;16.47;;;8.00;;
4696;SDS011;2362;50.780;0.292;2024-01-27T05:50:58;16.30;;;8.00;;
4696;SDS011;2362;50.780;0.292;2024-01-27T05:53:26;18.80;;;8.80;;
4696;SDS011;2362;50.780;0.292;2024-01-27T05:55:54;19.73;;;8.73;;
4696;SDS011;2362;50.780;0.292;2024-01-27T05:58:21;18.33;;;8.47;;
4696;SDS011;2362;50.780;0.292;2024-01-27T06:00:48;21.53;;;8.73;;
4696;SDS011;2362;50.780;0.292;2024-01-27T06:03:15;19.17;;;8.37;;
4696;SDS011;2362;50.780;0.292;2024-01-27T06:05:42;13.07;;;8.07;;
4696;SDS011;2362;50.780;0.292;2024-01-27T06:08:10;14.80;;;8.13;;
4696;SDS011;2362;50.780;0.292;2024-01-27T06:10:36;13.57;;;7.67;;
4696;SDS011;2362;50.780;0.292;2024-01-27T06:13:02;15.17;;;8.03;;
4696;SDS011;2362;50.780;0.292;2024-01-27T06:15:28;16.87;;;7.90;;
4696;SDS011;2362;50.780;0.292;2024-01-27T06:17:54;20.63;;;8.60;;
4696;SDS011;2362;50.780;0.292;2024-01-27T06:20:19;24.67;;;8.17;;
4696;SDS011;2362;50.780;0.292;2024-01-27T06:22:45;19.37;;;8.63;;
4696;SDS011;2362;50.780;0.292;2024-01-27T06:25:11;14.00;;;8.53;;
4696;SDS011;2362;50.780;0.292;2024-01-27T06:27:37;16.60;;;8.00;;
4696;SDS011;2362;50.780;0.292;2024-01-27T06:30:04;19.83;;;8.93;;
4696;SDS011;2362;50.780;0.292;2024-01-27T06:32:30;20.77;;;8.93;;
4696;SDS011;2362;50.780;0.292;2024-01-27T06:34:56;16.47;;;7.63;;
4696;SDS011;2362;50.780;0.292;2024-01-27T06:37:21;19.80;;;8.70;;
4696;SDS011;2362;50.780;0.292;2024-01-27T06:39:48;17.63;;;8.10;;
4696;SDS011;2362;50.780;0.292;2024-01-27T06:42:15;17.53;;;7.50;;
4696;SDS011;2362;50.780;0.292;2024-01-27T06:44:41;14.70;;;8.67;;
4696;SDS011;2362;50.780;0.292;2024-01-27T06:47:07;22.13;;;9.83;;
4696;SDS011;2362;50.780;0.292;2024-01-27T06:49:32;18.20;;;8.57;;
4696;SDS011;2362;50.780;0.292;2024-01-27T06:51:58;19.63;;;9.43;;
4696;SDS011;2362;50.780;0.292;2024-01-27T06:54:25;16.83;;;8.73;;
4696;SDS011;2362;50.780;0.292;2024-01-27T06:56:52;14.90;;;8.67;;
4696;SDS011;2362;50.780;0.292;2024-01-27T06:59:18;14.47;;;8.67;;
4696;SDS011;2362;50.780;0.292;2024-01-27T07:01:47;27.30;;;9.30;;
4696;SDS011;2362;50.780;0.292;2024-01-27T07:04:14;15.10;;;9.90;;
4696;SDS011;2362;50.780;0.292;2024-01-27T07:06:40;17.20;;;9.13;;
4696;SDS011;2362;50.780;0.292;2024-01-27T07:09:06;18.43;;;9.57;;
4696;SDS011;2362;50.780;0.292;2024-01-27T07:11:32;20.63;;;8.93;;
4696;SDS011;2362;50.780;0.292;2024-01-27T07:13:58;14.73;;;10.00;;
4696;SDS011;2362;50.780;0.292;2024-01-27T07:16:24;22.57;;;9.77;;
4696;SDS011;2362;50.780;0.292;2024-01-27T07:18:50;15.63;;;8.97;;
4696;SDS011;2362;50.780;0.292;2024-01-27T07:21:16;15.93;;;9.20;;
4696;SDS011;2362;50.780;0.292;2024-01-27T07:23:42;20.43;;;9.30;;
4696;SDS011;2362;50.780;0.292;2024-01-27T07:26:12;15.37;;;10.03;;
4696;SDS011;2362;50.780;0.292;2024-01-27T07:28:39;15.73;;;8.90;;
4696;SDS011;2362;50.780;0.292;2024-01-27T07:31:05;22.93;;;10.73;;
4696;SDS011;2362;50.780;0.292;2024-01-27T07:33:31;22.80;;;10.43;;
4696;SDS011;2362;50.780;0.292;2024-01-27T07:35:57;27.03;;;11.13;;
4696;SDS011;2362;50.780;0.292;2024-01-27T07:38:23;21.87;;;10.23;;
4696;SDS011;2362;50.780;0.292;2024-01-27T07:40:49;15.60;;;9.90;;
4696;SDS011;2362;50.780;0.292;2024-01-27T07:43:15;28.53;;;10.67;;
4696;SDS011;2362;50.780;0.292;2024-01-27T07:45:41;21.27;;;9.87;;
4696;SDS011;2362;50.780;0.292;2024-01-27T07:48:06;18.80;;;9.60;;
4696;SDS011;2362;50.780;0.292;2024-01-27T07:50:32;17.80;;;10.03;;
4696;SDS011;2362;50.780;0.292;2024-01-27T07:52:58;21.27;;;9.77;;
4696;SDS011;2362;50.780;0.292;2024-01-27T07:55:24;16.23;;;9.57;;
4696;SDS011;2362;50.780;0.292;2024-01-27T07:57:49;25.97;;;10.13;;
4696;SDS011;2362;50.780;0.292;2024-01-27T08:00:16;25.87;;;10.57;;
4696;SDS011;2362;50.780;0.292;2024-01-27T08:02:42;15.33;;;9.37;;
4696;SDS011;2362;50.780;0.292;2024-01-27T08:05:08;18.77;;;10.27;;
4696;SDS011;2362;50.780;0.292;2024-01-27T08:07:34;16.57;;;9.73;;
4696;SDS011;2362;50.780;0.292;2024-01-27T08:09:59;23.53;;;9.50;;
4696;SDS011;2362;50.780;0.292;2024-01-27T08:12:25;16.53;;;10.00;;
4696;SDS011;2362;50.780;0.292;2024-01-27T08:14:51;18.13;;;9.30;;
4696;SDS011;2362;50.780;0.292;2024-01-27T08:17:18;23.73;;;9.60;;
4696;SDS011;2362;50.780;0.292;2024-01-27T08:19:44;20.57;;;10.00;;
4696;SDS011;2362;50.780;0.292;2024-01-27T08:22:10;26.43;;;11.23;;
4696;SDS011;2362;50.780;0.292;2024-01-27T08:24:36;22.60;;;11.23;;
4696;SDS011;2362;50.780;0.292;2024-01-27T08:27:04;18.70;;;11.37;;
4696;SDS011;2362;50.780;0.292;2024-01-27T08:29:30;21.67;;;10.97;;
4696;SDS011;2362;50.780;0.292;2024-01-27T08:31:57;23.13;;;12.70;;
4696;SDS011;2362;50.780;0.292;2024-01-27T08:34:23;20.13;;;12.10;;
4696;SDS011;2362;50.780;0.292;2024-01-27T08:36:49;24.30;;;11.93;;
4696;SDS011;2362;50.780;0.292;2024-01-27T08:39:14;23.40;;;11.50;;
4696;SDS011;2362;50.780;0.292;2024-01-27T08:41:40;24.40;;;12.13;;
4696;SDS011;2362;50.780;0.292;2024-01-27T08:44:06;18.50;;;11.37;;
4696;SDS011;2362;50.780;0.292;2024-01-27T08:46:32;30.87;;;12.40;;
4696;SDS011;2362;50.780;0.292;2024-01-27T08:48:57;25.43;;;12.50;;
4696;SDS011;2362;50.780;0.292;2024-01-27T08:51:23;25.63;;;12.13;;
4696;SDS011;2362;50.780;0.292;2024-01-27T08:53:48;19.63;;;11.47;;
4696;SDS011;2362;50.780;0.292;2024-01-27T08:56:14;28.47;;;13.30;;
4696;SDS011;2362;50.780;0.292;2024-01-27T08:58:42;26.90;;;11.87;;
4696;SDS011;2362;50.780;0.292;2024-01-27T09:01:09;19.40;;;10.87;;
4696;SDS011;2362;50.780;0.292;2024-01-27T09:03:38;23.00;;;11.43;;
4696;SDS011;2362;50.780;0.292;2024-01-27T09:06:07;23.83;;;10.47;;
4696;SDS011;2362;50.780;0.292;2024-01-27T09:08:35;19.27;;;10.23;;
4696;SDS011;2362;50.780;0.292;2024-01-27T09:11:02;21.80;;;9.67;;
4696;SDS011;2362;50.780;0.292;2024-01-27T09:13:28;16.53;;;9.70;;
4696;SDS011;2362;50.780;0.292;2024-01-27T09:15:54;20.93;;;9.17;;
4696;SDS011;2362;50.780;0.292;2024-01-27T09:18:22;26.43;;;6.40;;
4696;SDS011;2362;50.780;0.292;2024-01-27T09:20:47;23.80;;;5.90;;
4696;SDS011;2362;50.780;0.292;2024-01-27T09:23:13;29.53;;;5.63;;
4696;SDS011;2362;50.780;0.292;2024-01-27T09:25:39;29.10;;;4.50;;
4696;SDS011;2362;50.780;0.292;2024-01-27T09:28:05;18.17;;;4.13;;
4696;SDS011;2362;50.780;0.292;2024-01-27T09:30:31;21.40;;;3.20;;
4696;SDS011;2362;50.780;0.292;2024-01-27T09:32:56;22.37;;;3.43;;
4696;SDS011;2362;50.780;0.292;2024-01-27T09:35:22;16.80;;;3.83;;
4696;SDS011;2362;50.780;0.292;2024-01-27T09:37:47;18.33;;;3.30;;
4696;SDS011;2362;50.780;0.292;2024-01-27T09:40:13;20.97;;;3.57;;
4696;SDS011;2362;50.780;0.292;2024-01-27T09:42:39;14.93;;;3.17;;
4696;SDS011;2362;50.780;0.292;2024-01-27T09:45:10;18.07;;;3.23;;
4696;SDS011;2362;50.780;0.292;2024-01-27T09:47:36;13.50;;;3.20;;
4696;SDS011;2362;50.780;0.292;2024-01-27T09:50:03;26.50;;;3.50;;
4696;SDS011;2362;50.780;0.292;2024-01-27T09:52:29;14.90;;;2.90;;
4696;SDS011;2362;50.780;0.292;2024-01-27T09:54:55;15.20;;;3.00;;
4696;SDS011;2362;50.780;0.292;2024-01-27T09:57:21;16.43;;;3.10;;
4696;SDS011;2362;50.780;0.292;2024-01-27T09:59:47;10.60;;;3.00;;
4696;SDS011;2362;50.780;0.292;2024-01-27T10:02:14;13.63;;;3.57;;
4696;SDS011;2362;50.780;0.292;2024-01-27T10:04:42;19.90;;;3.47;;
4696;SDS011;2362;50.780;0.292;2024-01-27T10:07:11;25.73;;;3.10;;
4696;SDS011;2362;50.780;0.292;2024-01-27T10:09:37;13.03;;;2.73;;
4696;SDS011;2362;50.780;0.292;2024-01-27T10:12:02;24.50;;;3.40;;
4696;SDS011;2362;50.780;0.292;2024-01-27T10:14:40;19.40;;;3.37;;
4696;SDS011;2362;50.780;0.292;2024-01-27T10:17:10;14.10;;;3.03;;
4696;SDS011;2362;50.780;0.292;2024-01-27T10:19:37;10.00;;;2.47;;
4696;SDS011;2362;50.780;0.292;2024-01-27T10:22:03;23.90;;;3.13;;
4696;SDS011;2362;50.780;0.292;2024-01-27T10:24:31;16.27;;;3.47;;
4696;SDS011;2362;50.780;0.292;2024-01-27T10:26:59;21.57;;;3.63;;
4696;SDS011;2362;50.780;0.292;2024-01-27T10:29:25;19.10;;;4.13;;
4696;SDS011;2362;50.780;0.292;2024-01-27T10:31:53;18.90;;;3.40;;
4696;SDS011;2362;50.780;0.292;2024-01-27T10:34:21;28.17;;;5.13;;
4696;SDS011;2362;50.780;0.292;2024-01-27T10:36:47;18.97;;;3.40;;
4696;SDS011;2362;50.780;0.292;2024-01-27T10:41:41;23.03;;;4.40;;
4696;SDS011;2362;50.780;0.292;2024-01-27T10:44:16;21.77;;;3.73;;
4696;SDS011;2362;50.780;0.292;2024-01-27T10:46:44;20.00;;;4.50;;
4696;SDS011;2362;50.780;0.292;2024-01-27T10:49:14;22.03;;;3.80;;
4696;SDS011;2362;50.780;0.292;2024-01-27T10:51:44;29.30;;;4.47;;
4696;SDS011;2362;50.780;0.292;2024-01-27T10:54:15;21.43;;;3.47;;
4696;SDS011;2362;50.780;0.292;2024-01-27T10:56:45;24.73;;;3.83;;
4696;SDS011;2362;50.780;0.292;2024-01-27T10:59:11;15.13;;;3.80;;
4696;SDS011;2362;50.780;0.292;2024-01-27T11:01:38;14.83;;;3.33;;
4696;SDS011;2362;50.780;0.292;2024-01-27T11:04:06;16.03;;;3.17;;
4696;SDS011;2362;50.780;0.292;2024-01-27T11:06:34;21.63;;;3.20;;
4696;SDS011;2362;50.780;0.292;2024-01-27T11:09:01;14.30;;;3.10;;
4696;SDS011;2362;50.780;0.292;2024-01-27T11:11:30;14.97;;;3.20;;
4696;SDS011;2362;50.780;0.292;2024-01-27T11:13:56;22.90;;;4.03;;
4696;SDS011;2362;50.780;0.292;2024-01-27T11:16:23;16.67;;;3.13;;
4696;SDS011;2362;50.780;0.292;2024-01-27T11:18:50;24.67;;;4.33;;
4696;SDS011;2362;50.780;0.292;2024-01-27T11:21:16;22.63;;;3.30;;
4696;SDS011;2362;50.780;0.292;2024-01-27T11:23:42;18.07;;;2.97;;
4696;SDS011;2362;50.780;0.292;2024-01-27T11:26:09;21.13;;;3.70;;
4696;SDS011;2362;50.780;0.292;2024-01-27T11:28:42;16.77;;;3.03;;
4696;SDS011;2362;50.780;0.292;2024-01-27T11:31:07;23.53;;;3.57;;
4696;SDS011;2362;50.780;0.292;2024-01-27T11:33:41;26.27;;;4.10;;
4696;SDS011;2362;50.780;0.292;2024-01-27T11:36:17;25.47;;;3.60;;
4696;SDS011;2362;50.780;0.292;2024-01-27T11:38:45;18.33;;;3.57;;
4696;SDS011;2362;50.780;0.292;2024-01-27T11:41:11;19.20;;;4.03;;
4696;SDS011;2362;50.780;0.292;2024-01-27T11:43:37;19.97;;;3.67;;
4696;SDS011;2362;50.780;0.292;2024-01-27T11:46:02;20.67;;;3.67;;
4696;SDS011;2362;50.780;0.292;2024-01-27T11:48:28;16.20;;;3.43;;
4696;SDS011;2362;50.780;0.292;2024-01-27T11:51:07;21.93;;;4.10;;
4696;SDS011;2362;50.780;0.292;2024-01-27T11:53:37;18.87;;;3.70;;
4696;SDS011;2362;50.780;0.292;2024-01-27T11:56:03;16.37;;;4.03;;
4696;SDS011;2362;50.780;0.292;2024-01-27T11:58:30;22.13;;;3.77;;
4696;SDS011;2362;50.780;0.292;2024-01-27T12:00:56;25.80;;;3.60;;
4696;SDS011;2362;50.780;0.292;2024-01-27T12:03:23;16.77;;;3.57;;
4696;SDS011;2362;50.780;0.292;2024-01-27T12:05:49;22.23;;;3.97;;
4696;SDS011;2362;50.780;0.292;2024-01-27T12:08:16;19.13;;;3.73;;
4696;SDS011;2362;50.780;0.292;2024-01-27T12:10:43;26.17;;;4.00;;
4696;SDS011;2362;50.780;0.292;2024-01-27T12:13:08;23.03;;;4.40;;
4696;SDS011;2362;50.780;0.292;2024-01-27T12:15:35;27.00;;;4.13;;
4696;SDS011;2362;50.780;0.292;2024-01-27T12:18:00;21.57;;;4.10;;
4696;SDS011;2362;50.780;0.292;2024-01-27T12:20:26;17.57;;;3.30;;
4696;SDS011;2362;50.780;0.292;2024-01-27T12:23:05;22.67;;;4.43;;
4696;SDS011;2362;50.780;0.292;2024-01-27T12:25:31;28.98;;;5.25;;
4696;SDS011;2362;50.780;0.292;2024-01-27T12:27:57;22.43;;;4.37;;
4696;SDS011;2362;50.780;0.292;2024-01-27T12:30:27;22.37;;;3.57;;
4696;SDS011;2362;50.780;0.292;2024-01-27T12:32:53;21.03;;;3.47;;
4696;SDS011;2362;50.780;0.292;2024-01-27T12:35:18;18.67;;;3.37;;
4696;SDS011;2362;50.780;0.292;2024-01-27T12:37:44;31.47;;;9.43;;
4696;SDS011;2362;50.780;0.292;2024-01-27T12:40:16;14.23;;;4.10;;
4696;SDS011;2362;50.780;0.292;2024-01-27T12:42:43;15.23;;;2.97;;
4696;SDS011;2362;50.780;0.292;2024-01-27T12:45:09;25.07;;;3.50;;
4696;SDS011;2362;50.780;0.292;2024-01-27T12:47:35;14.10;;;3.50;;
4696;SDS011;2362;50.780;0.292;2024-01-27T12:50:00;18.23;;;3.37;;
4696;SDS011;2362;50.780;0.292;2024-01-27T12:52:27;19.13;;;3.27;;
4696;SDS011;2362;50.780;0.292;2024-01-27T12:54:52;18.10;;;3.47;;
4696;SDS011;2362;50.780;0.292;2024-01-27T12:57:19;15.13;;;3.20;;
4696;SDS011;2362;50.780;0.292;2024-01-27T12:59:45;19.60;;;3.67;;
4696;SDS011;2362;50.780;0.292;2024-01-27T13:02:10;18.97;;;3.47;;
4696;SDS011;2362;50.780;0.292;2024-01-27T13:04:36;18.03;;;3.00;;
4696;SDS011;2362;50.780;0.292;2024-01-27T13:07:01;26.23;;;3.20;;
4696;SDS011;2362;50.780;0.292;2024-01-27T13:09:28;19.67;;;4.30;;
4696;SDS011;2362;50.780;0.292;2024-01-27T13:11:54;18.13;;;3.40;;
4696;SDS011;2362;50.780;0.292;2024-01-27T13:14:19;15.23;;;3.20;;
4696;SDS011;2362;50.780;0.292;2024-01-27T13:16:45;18.63;;;3.03;;
4696;SDS011;2362;50.780;0.292;2024-01-27T13:19:11;18.17;;;4.47;;
4696;SDS011;2362;50.780;0.292;2024-01-27T13:21:37;24.20;;;3.90;;
4696;SDS011;2362;50.780;0.292;2024-01-27T13:24:05;19.83;;;3.33;;
4696;SDS011;2362;50.780;0.292;2024-01-27T13:26:33;11.97;;;2.63;;
4696;SDS011;2362;50.780;0.292;2024-01-27T13:29:03;22.60;;;3.27;;
4696;SDS011;2362;50.780;0.292;2024-01-27T13:31:32;18.43;;;4.47;;
4696;SDS011;2362;50.780;0.292;2024-01-27T13:33:58;15.20;;;3.20;;
4696;SDS011;2362;50.780;0.292;2024-01-27T13:36:26;16.97;;;2.80;;
4696;SDS011;2362;50.780;0.292;2024-01-27T13:38:52;12.97;;;3.00;;
4696;SDS011;2362;50.780;0.292;2024-01-27T13:41:18;15.00;;;3.07;;
4696;SDS011;2362;50.780;0.292;2024-01-27T13:43:44;16.93;;;3.53;;
4696;SDS011;2362;50.780;0.292;2024-01-27T13:46:10;14.07;;;2.87;;
4696;SDS011;2362;50.780;0.292;2024-01-27T13:48:35;20.23;;;3.80;;
4696;SDS011;2362;50.780;0.292;2024-01-27T13:51:02;15.97;;;3.47;;
4696;SDS011;2362;50.780;0.292;2024-01-27T13:53:27;9.80;;;2.23;;
4696;SDS011;2362;50.780;0.292;2024-01-27T13:55:53;17.77;;;3.67;;
4696;SDS011;2362;50.780;0.292;2024-01-27T13:58:19;15.70;;;2.80;;
4696;SDS011;2362;50.780;0.292;2024-01-27T14:00:46;11.83;;;2.80;;
4696;SDS011;2362;50.780;0.292;2024-01-27T14:03:11;17.13;;;3.73;;
4696;SDS011;2362;50.780;0.292;2024-01-27T14:05:37;16.90;;;3.40;;
4696;SDS011;2362;50.780;0.292;2024-01-27T14:08:03;15.13;;;3.40;;
4696;SDS011;2362;50.780;0.292;2024-01-27T14:10:31;16.97;;;2.90;;
4696;SDS011;2362;50.780;0.292;2024-01-27T14:12:57;10.37;;;2.77;;
4696;SDS011;2362;50.780;0.292;2024-01-27T14:15:23;16.20;;;3.27;;
4696;SDS011;2362;50.780;0.292;2024-01-27T14:17:49;17.60;;;3.77;;
4696;SDS011;2362;50.780;0.292;2024-01-27T14:20:14;14.80;;;2.50;;
4696;SDS011;2362;50.780;0.292;2024-01-27T14:22:40;16.80;;;4.03;;
4696;SDS011;2362;50.780;0.292;2024-01-27T14:25:06;15.27;;;2.83;;
4696;SDS011;2362;50.780;0.292;2024-01-27T14:27:32;11.00;;;3.03;;
4696;SDS011;2362;50.780;0.292;2024-01-27T14:30:00;13.57;;;2.60;;
4696;SDS011;2362;50.780;0.292;2024-01-27T14:32:25;11.60;;;2.57;;
4696;SDS011;2362;50.780;0.292;2024-01-27T14:34:52;9.93;;;2.43;;
4696;SDS011;2362;50.780;0.292;2024-01-27T14:37:18;11.70;;;2.70;;
4696;SDS011;2362;50.780;0.292;2024-01-27T14:39:44;20.00;;;3.00;;
4696;SDS011;2362;50.780;0.292;2024-01-27T14:42:14;13.53;;;2.67;;
4696;SDS011;2362;50.780;0.292;2024-01-27T14:44:42;15.37;;;3.30;;
4696;SDS011;2362;50.780;0.292;2024-01-27T14:47:08;16.13;;;3.17;;
4696;SDS011;2362;50.780;0.292;2024-01-27T14:49:34;15.03;;;2.90;;
4696;SDS011;2362;50.780;0.292;2024-01-27T14:52:02;12.10;;;2.80;;
4696;SDS011;2362;50.780;0.292;2024-01-27T14:54:32;14.83;;;2.97;;
4696;SDS011;2362;50.780;0.292;2024-01-27T14:56:59;10.13;;;2.37;;
4696;SDS011;2362;50.780;0.292;2024-01-27T14:59:25;12.80;;;2.50;;